createdAt,value
2023-02-07T00:01:24.032Z,10.32
2023-02-07T00:03:32.119Z,9.57
2023-02-07T00:05:40.014Z,9.45
2023-02-07T00:07:51.105Z,9.95
2023-02-07T00:10:00.307Z,8.40
2023-02-07T00:12:08.868Z,9.23
2023-02-07T00:14:16.835Z,8.90
2023-02-07T00:16:26.396Z,8.90
2023-02-07T00:18:35.197Z,9.70
2023-02-07T00:20:43.036Z,8.75
2023-02-07T00:22:55.481Z,7.90
2023-02-07T00:25:03.527Z,9.07
2023-02-07T00:27:11.598Z,9.18
2023-02-07T00:29:19.732Z,9.07
2023-02-07T00:31:29.604Z,8.98
2023-02-07T00:33:38.569Z,8.93
2023-02-07T00:35:46.577Z,9.10
2023-02-07T00:37:57.429Z,9.85
2023-02-07T00:40:05.401Z,10.43
2023-02-07T00:42:13.290Z,10.10
2023-02-07T00:44:21.658Z,8.70
2023-02-07T00:46:30.103Z,9.68
2023-02-07T00:48:39.599Z,9.35
2023-02-07T00:50:49.441Z,9.60
2023-02-07T00:53:00.219Z,9.60
2023-02-07T00:55:08.930Z,10.05
2023-02-07T00:57:17.036Z,9.20
2023-02-07T00:59:25.260Z,9.70
2023-02-07T01:01:33.402Z,11.20
2023-02-07T01:03:41.765Z,10.20
2023-02-07T01:05:50.391Z,10.20
2023-02-07T01:08:01.465Z,11.02
2023-02-07T01:10:10.537Z,11.25
2023-02-07T01:12:18.484Z,10.88
2023-02-07T01:14:26.480Z,10.23
2023-02-07T01:16:37.160Z,11.32
2023-02-07T01:18:44.998Z,11.27
2023-02-07T01:20:53.466Z,11.27
2023-02-07T01:23:04.251Z,12.40
2023-02-07T01:25:13.382Z,11.45
2023-02-07T01:27:21.340Z,11.50
2023-02-07T01:29:29.179Z,12.43
2023-02-07T01:31:37.736Z,12.38
2023-02-07T01:33:45.888Z,12.10
2023-02-07T01:35:53.798Z,12.25
2023-02-07T01:38:05.465Z,12.80
2023-02-07T01:40:15.727Z,11.40
2023-02-07T01:42:25.230Z,12.68
2023-02-07T01:45:11.897Z,12.50
2023-02-07T01:47:21.919Z,13.25
2023-02-07T01:49:33.082Z,13.30
2023-02-07T01:51:45.699Z,13.88
2023-02-07T01:54:02.729Z,14.10
2023-02-07T01:56:29.472Z,13.73
2023-02-07T01:58:41.330Z,14.68
2023-02-07T02:00:50.032Z,15.05
2023-02-07T02:02:58.316Z,14.50
2023-02-07T02:05:07.179Z,14.15
2023-02-07T02:07:17.234Z,16.35
2023-02-07T02:09:30.119Z,13.43
2023-02-07T02:12:08.384Z,15.77
2023-02-07T02:14:28.012Z,15.82
2023-02-07T02:16:45.158Z,15.90
2023-02-07T02:19:21.402Z,16.15
2023-02-07T02:21:59.394Z,14.75
2023-02-07T02:24:40.941Z,16.88
2023-02-07T02:27:01.077Z,16.83
2023-02-07T02:29:54.559Z,16.10
2023-02-07T02:32:30.311Z,15.43
2023-02-07T02:34:51.198Z,17.20
2023-02-07T02:37:10.942Z,17.65
2023-02-07T02:39:27.746Z,17.05
2023-02-07T02:41:43.569Z,15.35
2023-02-07T02:43:57.130Z,16.60
2023-02-07T02:46:10.282Z,18.20
2023-02-07T02:48:21.615Z,19.70
2023-02-07T02:50:33.975Z,18.00
2023-02-07T02:52:50.649Z,16.95
2023-02-07T02:55:03.847Z,17.33
2023-02-07T02:57:32.434Z,17.80
2023-02-07T03:00:03.839Z,19.08
2023-02-07T03:02:26.338Z,19.70
2023-02-07T03:04:48.044Z,19.42
2023-02-07T03:07:15.338Z,18.60
2023-02-07T03:09:36.696Z,18.75
2023-02-07T03:11:54.748Z,18.60
2023-02-07T03:14:11.089Z,19.02
2023-02-07T03:16:23.573Z,18.20
2023-02-07T03:18:44.206Z,19.98
2023-02-07T03:20:56.771Z,21.23
2023-02-07T03:23:10.660Z,18.50
2023-02-07T03:25:20.525Z,19.70
2023-02-07T03:27:32.881Z,20.15
2023-02-07T03:29:42.910Z,19.65
2023-02-07T03:31:54.522Z,18.98
2023-02-07T03:34:09.094Z,19.65
2023-02-07T03:36:24.681Z,19.48
2023-02-07T03:38:35.501Z,19.83
2023-02-07T03:40:49.689Z,19.95
2023-02-07T03:43:08.551Z,19.70
2023-02-07T03:45:21.529Z,20.25
2023-02-07T03:47:30.630Z,20.10
2023-02-07T03:49:38.433Z,19.80
2023-02-07T03:51:46.660Z,18.83
2023-02-07T03:53:57.289Z,17.52
2023-02-07T03:56:07.708Z,15.88
2023-02-07T03:58:15.795Z,17.38
2023-02-07T04:00:23.756Z,16.45
2023-02-07T04:02:31.598Z,17.65
2023-02-07T04:04:42.082Z,14.10
2023-02-07T04:06:50.050Z,15.88
2023-02-07T04:09:00.525Z,16.63
2023-02-07T04:11:08.997Z,16.50
2023-02-07T04:13:17.054Z,16.23
2023-02-07T04:15:25.742Z,14.50
2023-02-07T04:17:33.858Z,15.98
2023-02-07T04:19:42.096Z,15.30
2023-02-07T04:21:50.420Z,16.27
2023-02-07T04:24:00.933Z,16.20
2023-02-07T04:26:08.934Z,17.80
2023-02-07T04:28:17.066Z,15.90
2023-02-07T04:30:25.111Z,14.10
2023-02-07T04:32:33.189Z,15.95
2023-02-07T04:34:41.006Z,17.70
2023-02-07T04:36:48.851Z,16.40
2023-02-07T04:38:56.706Z,18.05
2023-02-07T04:41:08.787Z,17.40
2023-02-07T04:43:16.836Z,16.95
2023-02-07T04:45:24.757Z,16.27
2023-02-07T04:47:32.646Z,16.80
2023-02-07T04:49:41.695Z,16.67
2023-02-07T04:51:49.452Z,17.00
2023-02-07T04:53:57.288Z,18.77
2023-02-07T04:56:08.466Z,17.42
2023-02-07T04:58:18.583Z,16.23
2023-02-07T05:00:26.350Z,16.42
2023-02-07T05:02:34.206Z,16.95
2023-02-07T05:04:44.030Z,16.23
2023-02-07T05:06:51.897Z,18.00
2023-02-07T05:09:02.342Z,15.32
2023-02-07T05:11:13.821Z,11.70
2023-02-07T05:13:21.707Z,14.52
2023-02-07T05:15:30.033Z,16.70
2023-02-07T05:17:39.058Z,15.30
2023-02-07T05:19:47.068Z,15.02
2023-02-07T05:21:55.057Z,17.73
2023-02-07T05:24:02.993Z,16.70
2023-02-07T05:26:14.549Z,13.38
2023-02-07T05:28:22.848Z,14.63
2023-02-07T05:30:31.022Z,13.88
2023-02-07T05:32:51.548Z,12.68
2023-02-07T05:34:59.660Z,14.57
2023-02-07T05:37:07.858Z,14.48
2023-02-07T05:39:15.869Z,14.25
2023-02-07T05:41:26.452Z,14.75
2023-02-07T05:43:34.828Z,14.27
2023-02-07T05:45:43.033Z,14.10
2023-02-07T05:47:51.276Z,14.60
2023-02-07T05:49:59.251Z,15.10
2023-02-07T05:52:07.773Z,13.65
2023-02-07T05:54:16.171Z,13.60
2023-02-07T05:56:26.741Z,12.85
2023-02-07T05:58:34.773Z,11.90
2023-02-07T06:00:42.560Z,13.73
2023-02-07T06:02:50.529Z,14.15
2023-02-07T06:04:58.631Z,12.48
2023-02-07T06:07:07.262Z,14.65
2023-02-07T06:09:17.793Z,14.68
2023-02-07T06:11:28.777Z,14.50
2023-02-07T06:13:36.680Z,13.63
2023-02-07T06:15:47.705Z,13.75
2023-02-07T06:17:56.252Z,13.23
2023-02-07T06:20:04.710Z,13.70
2023-02-07T06:22:13.010Z,13.20
2023-02-07T06:24:22.486Z,13.50
2023-02-07T06:26:32.929Z,12.75
2023-02-07T06:28:40.990Z,13.50
2023-02-07T06:30:48.914Z,15.95
2023-02-07T06:32:59.786Z,13.82
2023-02-07T06:35:08.964Z,14.45
2023-02-07T06:37:16.882Z,14.07
2023-02-07T06:39:25.029Z,15.38
2023-02-07T06:41:36.359Z,12.27
2023-02-07T06:43:44.289Z,14.02
2023-02-07T06:45:52.333Z,13.73
2023-02-07T06:48:00.163Z,15.65
2023-02-07T06:50:09.317Z,14.20
2023-02-07T06:52:17.481Z,13.55
2023-02-07T06:54:26.212Z,14.85
2023-02-07T06:56:36.665Z,13.73
2023-02-07T06:58:45.116Z,15.10
2023-02-07T07:00:52.885Z,16.67
2023-02-07T07:03:00.901Z,16.17
2023-02-07T07:05:09.676Z,18.30
2023-02-07T07:07:17.880Z,17.00
2023-02-07T07:09:25.735Z,15.85
2023-02-07T07:11:36.182Z,16.85
2023-02-07T07:13:43.972Z,16.38
2023-02-07T07:15:52.240Z,16.42
2023-02-07T07:18:00.129Z,15.32
2023-02-07T07:20:08.921Z,14.93
2023-02-07T07:22:16.891Z,16.25
2023-02-07T07:24:25.091Z,15.55
2023-02-07T07:26:47.893Z,16.77
2023-02-07T07:29:00.224Z,14.95
2023-02-07T07:31:10.838Z,17.42
2023-02-07T07:33:18.718Z,15.95
2023-02-07T07:35:26.778Z,15.20
2023-02-07T07:37:35.106Z,14.32
2023-02-07T07:39:44.188Z,15.05
2023-02-07T07:41:52.107Z,15.55
2023-02-07T07:44:19.963Z,13.82
2023-02-07T07:46:28.035Z,16.50
2023-02-07T07:48:36.254Z,16.17
2023-02-07T07:50:44.224Z,15.15
2023-02-07T07:52:52.020Z,15.23
2023-02-07T07:55:01.067Z,15.38
2023-02-07T07:57:08.934Z,15.65
2023-02-07T07:59:23.783Z,16.50
2023-02-07T08:01:32.159Z,16.55
2023-02-07T08:03:40.006Z,16.85
2023-02-07T08:05:49.146Z,15.30
2023-02-07T08:07:56.893Z,16.42
2023-02-07T08:10:05.718Z,16.70
2023-02-07T08:12:13.636Z,16.60
2023-02-07T08:14:24.477Z,17.02
2023-02-07T08:16:32.499Z,17.10
2023-02-07T08:18:40.848Z,17.10
2023-02-07T08:20:48.806Z,16.50
2023-02-07T08:22:57.732Z,16.13
2023-02-07T08:25:05.701Z,14.40
2023-02-07T08:27:13.668Z,15.25
2023-02-07T08:29:24.094Z,18.30
2023-02-07T08:31:32.103Z,15.30
2023-02-07T08:33:40.171Z,15.90
2023-02-07T08:35:48.454Z,16.58
2023-02-07T08:37:58.366Z,16.55
2023-02-07T08:40:06.520Z,14.68
2023-02-07T08:42:14.920Z,16.73
2023-02-07T08:44:25.656Z,16.10
2023-02-07T08:46:33.838Z,16.08
2023-02-07T08:48:41.916Z,15.30
2023-02-07T08:50:49.952Z,15.43
2023-02-07T08:52:57.740Z,15.40
2023-02-07T08:55:05.868Z,15.77
2023-02-07T08:57:14.012Z,15.07
2023-02-07T08:59:22.066Z,15.13
2023-02-07T09:01:32.892Z,14.43
2023-02-07T09:03:41.205Z,13.43
2023-02-07T09:05:49.447Z,13.95
2023-02-07T09:07:57.593Z,14.85
2023-02-07T09:10:06.839Z,14.18
2023-02-07T09:12:15.383Z,13.63
2023-02-07T09:14:23.965Z,14.48
2023-02-07T09:16:34.745Z,14.68
2023-02-07T09:18:42.900Z,13.77
2023-02-07T09:20:51.048Z,15.55
2023-02-07T09:23:11.243Z,15.52
2023-02-07T09:25:19.165Z,14.40
2023-02-07T09:27:27.543Z,14.38
2023-02-07T09:29:35.869Z,14.50
2023-02-07T09:31:46.715Z,15.65
2023-02-07T09:33:55.010Z,14.60
2023-02-07T09:36:03.167Z,12.85
2023-02-07T09:38:15.626Z,13.13
2023-02-07T09:40:25.382Z,15.57
2023-02-07T09:42:38.727Z,13.20
2023-02-07T09:44:56.368Z,13.68
2023-02-07T09:47:12.850Z,11.20
2023-02-07T09:49:32.599Z,11.90
2023-02-07T09:51:43.188Z,11.98
2023-02-07T09:53:56.394Z,12.07
2023-02-07T09:56:05.554Z,12.27
2023-02-07T09:58:18.667Z,15.45
2023-02-07T10:00:30.129Z,11.52
2023-02-07T10:02:46.570Z,12.23
2023-02-07T10:04:58.281Z,11.15
2023-02-07T10:07:10.373Z,11.75
2023-02-07T10:09:21.135Z,12.50
2023-02-07T10:11:42.074Z,11.75
2023-02-07T10:14:10.171Z,14.93
2023-02-07T10:16:29.514Z,12.57
2023-02-07T10:18:49.822Z,12.80
2023-02-07T10:21:02.627Z,13.68
2023-02-07T10:23:25.999Z,12.88
2023-02-07T10:25:44.345Z,13.05
2023-02-07T10:28:03.331Z,13.40
2023-02-07T10:30:18.178Z,12.98
2023-02-07T10:32:28.852Z,14.88
2023-02-07T10:34:44.092Z,13.50
2023-02-07T10:36:54.612Z,14.13
2023-02-07T10:39:09.661Z,12.02
2023-02-07T10:41:23.332Z,12.50
2023-02-07T10:43:35.270Z,12.80
2023-02-07T10:45:49.837Z,11.90
2023-02-07T10:48:00.628Z,12.50
2023-02-07T10:50:24.963Z,11.82
2023-02-07T10:52:43.280Z,11.80
2023-02-07T10:54:57.844Z,10.75
2023-02-07T10:57:06.036Z,11.27
2023-02-07T10:59:36.384Z,10.50
2023-02-07T11:01:56.320Z,10.15
2023-02-07T11:04:04.845Z,9.73
2023-02-07T11:06:17.764Z,10.40
2023-02-07T11:08:29.959Z,10.75
2023-02-07T11:10:40.329Z,11.32
2023-02-07T11:12:49.530Z,11.65
2023-02-07T11:15:04.858Z,10.95
2023-02-07T11:17:24.207Z,10.40
2023-02-07T11:19:34.125Z,11.00
2023-02-07T11:21:46.158Z,10.75
2023-02-07T11:23:56.737Z,10.82
2023-02-07T11:26:06.872Z,10.70
2023-02-07T11:28:22.848Z,10.55
2023-02-07T11:30:34.648Z,11.00
2023-02-07T11:32:44.269Z,11.13
2023-02-07T11:34:57.290Z,11.00
2023-02-07T11:37:22.839Z,11.43
2023-02-07T11:39:30.887Z,11.38
2023-02-07T11:41:41.909Z,12.32
2023-02-07T11:43:59.664Z,10.82
2023-02-07T11:46:12.653Z,11.70
2023-02-07T11:48:23.049Z,11.88
2023-02-07T11:50:34.454Z,11.30
2023-02-07T11:52:56.851Z,11.07
2023-02-07T11:55:10.275Z,12.60
2023-02-07T11:57:22.925Z,13.15
2023-02-07T11:59:32.391Z,12.45
2023-02-07T12:01:40.560Z,12.82
2023-02-07T12:03:52.931Z,13.60
2023-02-07T12:06:05.044Z,13.30
2023-02-07T12:08:22.878Z,14.63
2023-02-07T12:10:35.816Z,13.82
2023-02-07T12:12:49.310Z,13.85
2023-02-07T12:15:00.913Z,13.25
2023-02-07T12:17:15.717Z,13.73
2023-02-07T12:19:29.053Z,13.75
2023-02-07T12:21:44.917Z,13.45
2023-02-07T12:24:00.434Z,13.40
2023-02-07T12:26:19.252Z,12.77
2023-02-07T12:28:33.950Z,12.63
2023-02-07T12:30:48.058Z,14.05
2023-02-07T12:33:02.868Z,13.35
2023-02-07T12:35:19.194Z,12.70
2023-02-07T12:37:35.268Z,13.10
2023-02-07T12:39:54.806Z,13.45
2023-02-07T12:42:16.364Z,13.95
2023-02-07T12:44:28.343Z,14.52
2023-02-07T12:46:56.344Z,13.40
2023-02-07T12:49:27.524Z,13.52
2023-02-07T12:51:44.543Z,12.35
2023-02-07T12:54:08.339Z,13.40
2023-02-07T12:56:38.015Z,14.20
2023-02-07T12:58:58.888Z,12.95
2023-02-07T13:01:13.880Z,12.55
2023-02-07T13:03:37.187Z,12.50
2023-02-07T13:06:06.994Z,10.32
2023-02-07T13:08:24.453Z,8.00
2023-02-07T13:10:41.977Z,8.73
2023-02-07T13:13:02.091Z,8.85
2023-02-07T13:15:21.810Z,8.15
2023-02-07T13:17:39.672Z,7.55
2023-02-07T13:19:55.874Z,7.60
2023-02-07T13:22:08.926Z,8.25
2023-02-07T13:24:20.125Z,7.47
2023-02-07T13:26:29.674Z,6.30
2023-02-07T13:28:47.033Z,6.80
2023-02-07T13:30:57.585Z,8.05
2023-02-07T13:33:15.883Z,6.82
2023-02-07T13:35:27.806Z,6.43
2023-02-07T13:37:44.423Z,6.78
2023-02-07T13:40:01.729Z,6.80
2023-02-07T13:42:22.014Z,6.22
2023-02-07T13:44:42.621Z,6.35
2023-02-07T13:47:19.447Z,7.03
2023-02-07T13:49:39.682Z,6.00
2023-02-07T13:51:55.640Z,5.47
2023-02-07T13:54:31.017Z,5.72
2023-02-07T13:56:52.229Z,6.63
2023-02-07T13:59:12.734Z,6.47
2023-02-07T14:01:27.770Z,5.57
2023-02-07T14:03:37.602Z,6.15
2023-02-07T14:05:46.801Z,6.70
2023-02-07T14:07:59.859Z,4.80
2023-02-07T14:10:10.040Z,4.82
2023-02-07T14:12:24.131Z,4.70
2023-02-07T14:14:34.235Z,5.10
2023-02-07T14:16:56.530Z,4.32
2023-02-07T14:19:06.353Z,5.57
2023-02-07T14:21:33.502Z,4.88
2023-02-07T14:24:02.694Z,4.85
2023-02-07T14:27:08.073Z,4.75
2023-02-07T14:30:06.727Z,4.55
2023-02-07T14:32:48.006Z,4.78
2023-02-07T14:35:05.031Z,5.32
2023-02-07T14:37:24.798Z,5.85
2023-02-07T14:39:33.711Z,5.63
2023-02-07T14:41:46.760Z,5.22
2023-02-07T14:44:08.560Z,4.47
2023-02-07T14:46:20.605Z,4.93
2023-02-07T14:48:45.286Z,5.28
2023-02-07T14:50:55.756Z,5.78
2023-02-07T14:53:09.840Z,4.90
2023-02-07T14:55:24.205Z,6.22
2023-02-07T14:57:41.515Z,5.82
2023-02-07T14:59:59.082Z,5.82
2023-02-07T15:02:32.287Z,5.47
2023-02-07T15:04:46.599Z,4.80
2023-02-07T15:06:54.651Z,5.95
2023-02-07T15:09:04.336Z,5.68
2023-02-07T15:11:17.158Z,5.20
2023-02-07T15:13:29.672Z,5.40
2023-02-07T15:15:52.392Z,5.47
2023-02-07T15:18:04.940Z,5.68
2023-02-07T15:20:22.413Z,5.88
2023-02-07T15:22:32.551Z,5.43
2023-02-07T15:24:51.505Z,6.30
2023-02-07T15:27:02.509Z,6.57
2023-02-07T15:29:23.536Z,6.30
2023-02-07T15:31:33.740Z,6.75
2023-02-07T15:33:44.010Z,5.70
2023-02-07T15:35:54.572Z,5.70
2023-02-07T15:38:19.010Z,6.32
2023-02-07T15:40:27.685Z,5.82
2023-02-07T15:42:35.797Z,6.35
2023-02-07T15:44:51.524Z,5.80
2023-02-07T15:47:01.414Z,6.70
2023-02-07T15:49:11.366Z,6.78
2023-02-07T15:51:25.431Z,6.13
2023-02-07T15:53:34.363Z,6.40
2023-02-07T15:55:47.318Z,6.15
2023-02-07T15:57:55.283Z,6.28
2023-02-07T16:00:05.922Z,6.35
2023-02-07T16:02:28.812Z,6.35
2023-02-07T16:04:37.713Z,5.90
2023-02-07T16:06:58.765Z,6.53
2023-02-07T16:09:08.454Z,6.32
2023-02-07T16:11:19.568Z,6.85
2023-02-07T16:13:30.105Z,6.60
2023-02-07T16:15:40.616Z,6.50
2023-02-07T16:17:48.676Z,6.95
2023-02-07T16:19:59.623Z,7.13
2023-02-07T16:22:15.239Z,7.30
2023-02-07T16:24:27.783Z,6.07
2023-02-07T16:26:35.909Z,7.30
2023-02-07T16:28:44.028Z,7.20
2023-02-07T16:30:53.048Z,6.75
2023-02-07T16:33:07.468Z,6.97
2023-02-07T16:35:24.497Z,7.80
2023-02-07T16:37:34.845Z,7.65
2023-02-07T16:39:42.853Z,6.55
2023-02-07T16:41:55.194Z,7.32
2023-02-07T16:44:03.975Z,8.73
2023-02-07T16:46:11.805Z,8.13
2023-02-07T16:48:21.862Z,7.60
2023-02-07T16:50:32.097Z,7.57
2023-02-07T16:52:42.760Z,9.18
2023-02-07T16:54:50.689Z,8.55
2023-02-07T16:57:03.709Z,8.98
2023-02-07T16:59:15.852Z,8.50
2023-02-07T17:01:25.109Z,9.93
2023-02-07T17:03:32.999Z,10.00
2023-02-07T17:05:41.051Z,8.85
2023-02-07T17:07:53.770Z,9.48
2023-02-07T17:10:01.592Z,8.40
2023-02-07T17:12:10.316Z,10.00
2023-02-07T17:14:18.329Z,9.70
2023-02-07T17:16:27.210Z,9.13
2023-02-07T17:18:35.118Z,9.50
2023-02-07T17:20:43.495Z,9.63
2023-02-07T17:22:55.068Z,9.48
2023-02-07T17:25:04.189Z,9.20
2023-02-07T17:27:13.393Z,10.10
2023-02-07T17:29:22.213Z,8.98
2023-02-07T17:31:32.290Z,9.00
2023-02-07T17:33:40.394Z,10.00
2023-02-07T17:35:48.226Z,9.05
2023-02-07T17:37:58.753Z,9.30
2023-02-07T17:40:07.528Z,8.48
2023-02-07T17:42:15.388Z,10.38
2023-02-07T17:44:25.292Z,9.10
2023-02-07T17:46:33.649Z,8.75
2023-02-07T17:48:41.801Z,9.75
2023-02-07T17:50:49.738Z,9.75
2023-02-07T17:53:01.670Z,10.07
2023-02-07T17:55:10.275Z,9.02
2023-02-07T17:57:19.826Z,9.55
2023-02-07T17:59:28.440Z,9.75
2023-02-07T18:01:36.884Z,9.00
2023-02-07T18:03:44.988Z,10.23
2023-02-07T18:05:53.070Z,10.68
2023-02-07T18:08:03.842Z,9.30
2023-02-07T18:10:12.837Z,10.25
2023-02-07T18:12:20.614Z,10.02
2023-02-07T18:14:28.604Z,10.45
2023-02-07T18:16:36.517Z,9.82
2023-02-07T18:18:44.362Z,9.38
2023-02-07T18:20:53.236Z,10.23
2023-02-07T18:23:04.102Z,8.75
2023-02-07T18:25:12.296Z,9.00
2023-02-07T18:27:20.205Z,9.23
2023-02-07T18:29:28.198Z,9.25
2023-02-07T18:31:36.255Z,9.80
2023-02-07T18:33:44.360Z,8.60
2023-02-07T18:35:59.225Z,9.75
2023-02-07T18:38:09.777Z,9.40
2023-02-07T18:40:18.529Z,10.13
2023-02-07T18:42:26.557Z,9.35
2023-02-07T18:44:34.473Z,8.85
2023-02-07T18:46:42.965Z,9.93
2023-02-07T18:48:52.249Z,8.75
2023-02-07T18:51:00.149Z,9.70
2023-02-07T18:53:10.742Z,10.23
2023-02-07T18:55:22.250Z,9.15
2023-02-07T18:57:32.418Z,9.18
2023-02-07T18:59:41.368Z,9.80
2023-02-07T19:01:51.153Z,8.93
2023-02-07T19:04:01.760Z,9.68
2023-02-07T19:06:11.080Z,10.65
2023-02-07T19:08:21.526Z,9.48
2023-02-07T19:10:29.509Z,10.38
2023-02-07T19:12:37.507Z,10.10
2023-02-07T19:14:45.459Z,11.38
2023-02-07T19:16:55.995Z,10.30
2023-02-07T19:19:05.245Z,11.18
2023-02-07T19:21:15.338Z,10.25
2023-02-07T19:23:25.872Z,11.88
2023-02-07T19:25:33.734Z,12.05
2023-02-07T19:27:42.151Z,11.85
2023-02-07T19:29:58.103Z,10.30
2023-02-07T19:32:08.806Z,11.10
2023-02-07T19:34:17.174Z,10.52
2023-02-07T19:36:26.198Z,11.05
2023-02-07T19:38:37.188Z,11.10
2023-02-07T19:40:45.244Z,13.93
2023-02-07T19:42:53.771Z,12.80
2023-02-07T19:45:02.113Z,16.45
2023-02-07T19:47:10.174Z,13.90
2023-02-07T19:49:18.802Z,14.48
2023-02-07T19:51:29.061Z,12.43
2023-02-07T19:53:40.143Z,14.40
2023-02-07T19:55:50.610Z,13.82
2023-02-07T19:57:59.877Z,16.00
2023-02-07T20:00:09.684Z,15.95
2023-02-07T20:02:17.802Z,19.55
2023-02-07T20:04:25.771Z,20.45
2023-02-07T20:06:34.765Z,21.50
2023-02-07T20:08:45.716Z,16.33
2023-02-07T20:10:53.941Z,15.23
2023-02-07T20:13:01.989Z,14.95
2023-02-07T20:15:11.016Z,14.85
2023-02-07T20:17:19.015Z,12.93
2023-02-07T20:19:27.327Z,12.40
2023-02-07T20:21:36.304Z,12.55
2023-02-07T20:23:47.413Z,14.05
2023-02-07T20:25:55.750Z,13.75
2023-02-07T20:28:03.675Z,10.48
2023-02-07T20:30:12.784Z,11.15
2023-02-07T20:32:20.704Z,12.05
2023-02-07T20:34:28.962Z,10.85
2023-02-07T20:36:41.023Z,10.85
2023-02-07T20:38:51.662Z,11.10
2023-02-07T20:40:59.708Z,12.18
2023-02-07T20:43:07.610Z,11.98
2023-02-07T20:45:15.703Z,12.20
2023-02-07T20:47:23.536Z,11.70
2023-02-07T20:49:34.050Z,11.98
2023-02-07T20:51:44.043Z,12.10
2023-02-07T20:53:57.398Z,11.38
2023-02-07T20:56:13.411Z,12.00
2023-02-07T20:58:21.271Z,10.90
2023-02-07T21:00:29.448Z,11.45
2023-02-07T21:02:37.406Z,11.82
2023-02-07T21:04:45.525Z,12.90
2023-02-07T21:06:53.520Z,11.80
2023-02-07T21:09:05.692Z,12.75
2023-02-07T21:11:17.027Z,12.10
2023-02-07T21:13:25.811Z,12.50
2023-02-07T21:15:33.658Z,13.32
2023-02-07T21:17:41.941Z,13.23
2023-02-07T21:19:49.758Z,13.68
2023-02-07T21:21:58.674Z,13.65
2023-02-07T21:24:09.661Z,14.38
2023-02-07T21:26:19.242Z,13.40
2023-02-07T21:28:27.049Z,13.35
2023-02-07T21:30:36.558Z,13.70
2023-02-07T21:32:44.916Z,14.35
2023-02-07T21:34:52.762Z,13.63
2023-02-07T21:37:00.833Z,14.48
2023-02-07T21:39:13.401Z,13.60
2023-02-07T21:41:24.026Z,13.10
2023-02-07T21:43:32.056Z,13.88
2023-02-07T21:45:40.015Z,13.90
2023-02-07T21:47:48.252Z,12.77
2023-02-07T21:49:56.098Z,12.48
2023-02-07T21:52:04.089Z,13.77
2023-02-07T21:54:15.127Z,14.02
2023-02-07T21:56:25.794Z,13.00
2023-02-07T21:58:34.503Z,12.02
2023-02-07T22:00:42.558Z,13.65
2023-02-07T22:02:50.563Z,12.45
2023-02-07T22:04:58.310Z,13.07
2023-02-07T22:07:06.147Z,12.57
2023-02-07T22:09:18.797Z,11.77
2023-02-07T22:11:28.779Z,13.07
2023-02-07T22:13:38.377Z,12.70
2023-02-07T22:15:51.112Z,12.82
2023-02-07T22:17:58.948Z,13.02
2023-02-07T22:20:07.425Z,13.15
2023-02-07T22:22:15.302Z,12.35
2023-02-07T22:24:26.032Z,12.27
2023-02-07T22:26:34.835Z,12.40
2023-02-07T22:28:43.837Z,11.75
2023-02-07T22:30:59.285Z,13.18
2023-02-07T22:33:13.101Z,12.10
2023-02-07T22:35:20.851Z,12.80
2023-02-07T22:37:28.716Z,11.93
2023-02-07T22:39:39.240Z,11.57
2023-02-07T22:41:47.641Z,11.63
2023-02-07T22:43:55.460Z,13.02
2023-02-07T22:46:06.011Z,11.88
2023-02-07T22:48:13.981Z,11.43
2023-02-07T22:50:22.042Z,11.20
2023-02-07T22:52:30.976Z,10.75
2023-02-07T22:54:41.966Z,10.85
2023-02-07T22:56:50.099Z,10.90
2023-02-07T22:58:58.648Z,10.73
2023-02-07T23:01:08.169Z,11.27
2023-02-07T23:03:16.232Z,11.13
2023-02-07T23:05:24.326Z,10.82
2023-02-07T23:07:32.415Z,10.35
2023-02-07T23:09:43.005Z,11.32
2023-02-07T23:11:51.070Z,11.00
2023-02-07T23:13:59.007Z,9.77
2023-02-07T23:16:07.474Z,10.63
2023-02-07T23:18:15.654Z,9.80
2023-02-07T23:20:23.431Z,10.13
2023-02-07T23:22:31.233Z,12.02
2023-02-07T23:24:39.317Z,10.25
2023-02-07T23:26:49.890Z,9.80
2023-02-07T23:28:58.097Z,8.88
2023-02-07T23:31:06.515Z,10.93
2023-02-07T23:33:14.540Z,9.45
2023-02-07T23:35:22.375Z,8.45
2023-02-07T23:37:30.222Z,10.10
2023-02-07T23:39:38.297Z,10.00
2023-02-07T23:41:46.550Z,9.77
2023-02-07T23:43:57.884Z,9.70
2023-02-07T23:46:06.406Z,9.82
2023-02-07T23:48:15.014Z,9.80
2023-02-07T23:50:24.243Z,10.38
2023-02-07T23:52:32.120Z,9.50
2023-02-07T23:54:39.882Z,9.43
2023-02-07T23:56:50.604Z,10.05
2023-02-07T23:59:01.359Z,9.23
